sensor_id;sensor_type;location;lat;lon;timestamp;P1;durP1;ratioP1;P2;durP2;ratioP2
37451;SDS011;23314;51.114;6.900;2023-05-10T04:02:33;14.67;;;10.13;;
37451;SDS011;23314;51.114;6.900;2023-05-10T04:04:58;13.77;;;11.00;;
37451;SDS011;23314;51.114;6.900;2023-05-10T04:07:23;13.77;;;11.37;;
37451;SDS011;23314;51.114;6.900;2023-05-10T04:09:49;12.70;;;11.10;;
37451;SDS011;23314;51.114;6.900;2023-05-10T04:12:14;13.30;;;11.80;;
37451;SDS011;23314;51.114;6.900;2023-05-10T04:14:39;15.80;;;11.73;;
37451;SDS011;23314;51.114;6.900;2023-05-10T04:17:05;14.30;;;12.00;;
37451;SDS011;23314;51.114;6.900;2023-05-10T04:19:31;19.23;;;13.17;;
37451;SDS011;23314;51.114;6.900;2023-05-10T04:21:57;16.47;;;13.00;;
37451;SDS011;23314;51.114;6.900;2023-05-10T04:24:22;18.83;;;13.40;;
37451;SDS011;23314;51.114;6.900;2023-05-10T04:26:48;19.17;;;13.87;;
37451;SDS011;23314;51.114;6.900;2023-05-10T04:29:13;20.53;;;13.90;;
37451;SDS011;23314;51.114;6.900;2023-05-10T04:31:38;22.70;;;14.03;;
37451;SDS011;23314;51.114;6.900;2023-05-10T04:34:04;19.13;;;15.23;;
37451;SDS011;23314;51.114;6.900;2023-05-10T04:36:30;18.10;;;14.73;;
37451;SDS011;23314;51.114;6.900;2023-05-10T04:38:55;18.33;;;13.37;;
37451;SDS011;23314;51.114;6.900;2023-05-10T04:41:20;18.97;;;15.23;;
37451;SDS011;23314;51.114;6.900;2023-05-10T04:43:46;20.90;;;15.00;;
37451;SDS011;23314;51.114;6.900;2023-05-10T04:46:14;20.47;;;16.00;;
37451;SDS011;23314;51.114;6.900;2023-05-10T04:48:39;21.40;;;14.57;;
37451;SDS011;23314;51.114;6.900;2023-05-10T04:51:04;20.70;;;15.90;;
37451;SDS011;23314;51.114;6.900;2023-05-10T04:53:31;19.03;;;15.40;;
37451;SDS011;23314;51.114;6.900;2023-05-10T04:55:57;22.77;;;16.03;;
37451;SDS011;23314;51.114;6.900;2023-05-10T04:58:22;23.17;;;16.60;;
37451;SDS011;23314;51.114;6.900;2023-05-10T05:00:47;23.97;;;17.33;;
37451;SDS011;23314;51.114;6.900;2023-05-10T05:03:13;19.57;;;16.50;;
37451;SDS011;23314;51.114;6.900;2023-05-10T05:05:38;25.93;;;17.43;;
37451;SDS011;23314;51.114;6.900;2023-05-10T05:08:03;20.60;;;17.27;;
37451;SDS011;23314;51.114;6.900;2023-05-10T05:10:29;21.33;;;18.00;;
37451;SDS011;23314;51.114;6.900;2023-05-10T05:12:55;25.03;;;18.87;;
37451;SDS011;23314;51.114;6.900;2023-05-10T05:15:20;22.50;;;17.67;;
37451;SDS011;23314;51.114;6.900;2023-05-10T05:17:45;44.80;;;22.47;;
37451;SDS011;23314;51.114;6.900;2023-05-10T05:20:11;21.80;;;17.47;;
37451;SDS011;23314;51.114;6.900;2023-05-10T05:22:37;20.57;;;16.00;;
37451;SDS011;23314;51.114;6.900;2023-05-10T05:25:03;20.30;;;15.27;;
37451;SDS011;23314;51.114;6.900;2023-05-10T05:27:29;18.20;;;14.47;;
37451;SDS011;23314;51.114;6.900;2023-05-10T05:29:55;18.53;;;14.00;;
37451;SDS011;23314;51.114;6.900;2023-05-10T05:32:21;17.57;;;14.00;;
37451;SDS011;23314;51.114;6.900;2023-05-10T05:34:47;16.07;;;12.87;;
37451;SDS011;23314;51.114;6.900;2023-05-10T05:37:16;17.23;;;13.20;;
37451;SDS011;23314;51.114;6.900;2023-05-10T05:39:42;14.30;;;12.07;;
37451;SDS011;23314;51.114;6.900;2023-05-10T05:42:11;16.83;;;12.33;;
37451;SDS011;23314;51.114;6.900;2023-05-10T05:44:37;14.30;;;11.67;;
37451;SDS011;23314;51.114;6.900;2023-05-10T05:47:03;16.47;;;13.10;;
37451;SDS011;23314;51.114;6.900;2023-05-10T05:49:29;15.30;;;11.90;;
37451;SDS011;23314;51.114;6.900;2023-05-10T05:51:54;14.00;;;12.27;;
37451;SDS011;23314;51.114;6.900;2023-05-10T05:54:19;14.07;;;11.47;;
37451;SDS011;23314;51.114;6.900;2023-05-10T05:56:45;14.27;;;11.80;;
37451;SDS011;23314;51.114;6.900;2023-05-10T05:59:10;15.70;;;12.27;;
37451;SDS011;23314;51.114;6.900;2023-05-10T06:01:36;18.10;;;13.63;;
37451;SDS011;23314;51.114;6.900;2023-05-10T06:04:01;16.23;;;11.93;;
37451;SDS011;23314;51.114;6.900;2023-05-10T06:06:27;17.17;;;12.40;;
37451;SDS011;23314;51.114;6.900;2023-05-10T06:08:53;20.33;;;13.00;;
37451;SDS011;23314;51.114;6.900;2023-05-10T06:11:18;16.73;;;12.60;;
37451;SDS011;23314;51.114;6.900;2023-05-10T06:13:45;17.43;;;12.33;;
37451;SDS011;23314;51.114;6.900;2023-05-10T06:16:11;15.27;;;12.23;;
37451;SDS011;23314;51.114;6.900;2023-05-10T06:18:36;19.57;;;13.00;;
37451;SDS011;23314;51.114;6.900;2023-05-10T06:21:01;18.03;;;13.63;;
37451;SDS011;23314;51.114;6.900;2023-05-10T06:23:27;21.23;;;14.53;;
37451;SDS011;23314;51.114;6.900;2023-05-10T06:25:52;21.40;;;14.50;;
37451;SDS011;23314;51.114;6.900;2023-05-10T06:28:17;20.00;;;15.03;;
37451;SDS011;23314;51.114;6.900;2023-05-10T06:30:43;17.57;;;14.63;;
37451;SDS011;23314;51.114;6.900;2023-05-10T06:33:08;23.13;;;14.90;;
37451;SDS011;23314;51.114;6.900;2023-05-10T06:35:33;17.47;;;14.47;;
37451;SDS011;23314;51.114;6.900;2023-05-10T06:37:59;18.67;;;14.83;;
37451;SDS011;23314;51.114;6.900;2023-05-10T06:40:24;22.63;;;16.63;;
37451;SDS011;23314;51.114;6.900;2023-05-10T06:42:49;22.70;;;16.87;;
37451;SDS011;23314;51.114;6.900;2023-05-10T06:45:15;19.50;;;16.97;;
37451;SDS011;23314;51.114;6.900;2023-05-10T06:47:40;25.23;;;17.73;;
37451;SDS011;23314;51.114;6.900;2023-05-10T06:50:07;25.83;;;17.73;;
37451;SDS011;23314;51.114;6.900;2023-05-10T06:52:33;23.23;;;18.27;;
37451;SDS011;23314;51.114;6.900;2023-05-10T06:54:58;24.70;;;19.23;;
37451;SDS011;23314;51.114;6.900;2023-05-10T06:57:24;24.07;;;18.30;;
37451;SDS011;23314;51.114;6.900;2023-05-10T06:59:49;25.03;;;18.53;;
37451;SDS011;23314;51.114;6.900;2023-05-10T07:02:15;22.47;;;17.17;;
37451;SDS011;23314;51.114;6.900;2023-05-10T07:04:40;25.57;;;17.70;;
37451;SDS011;23314;51.114;6.900;2023-05-10T07:07:05;23.13;;;16.83;;
37451;SDS011;23314;51.114;6.900;2023-05-10T07:09:31;18.93;;;14.80;;
37451;SDS011;23314;51.114;6.900;2023-05-10T07:11:56;22.97;;;16.30;;
37451;SDS011;23314;51.114;6.900;2023-05-10T07:14:22;19.80;;;14.93;;
37451;SDS011;23314;51.114;6.900;2023-05-10T07:16:48;16.73;;;13.27;;
37451;SDS011;23314;51.114;6.900;2023-05-10T07:19:13;19.50;;;14.00;;
37451;SDS011;23314;51.114;6.900;2023-05-10T07:21:39;15.87;;;12.60;;
37451;SDS011;23314;51.114;6.900;2023-05-10T07:24:05;18.50;;;14.50;;
37451;SDS011;23314;51.114;6.900;2023-05-10T07:26:30;18.77;;;13.37;;
37451;SDS011;23314;51.114;6.900;2023-05-10T07:28:56;17.93;;;12.57;;
37451;SDS011;23314;51.114;6.900;2023-05-10T07:31:21;16.53;;;13.27;;
37451;SDS011;23314;51.114;6.900;2023-05-10T07:33:47;18.77;;;14.03;;
37451;SDS011;23314;51.114;6.900;2023-05-10T07:36:12;18.60;;;13.83;;
37451;SDS011;23314;51.114;6.900;2023-05-10T07:38:37;17.73;;;12.97;;
37451;SDS011;23314;51.114;6.900;2023-05-10T07:41:03;18.13;;;14.23;;
37451;SDS011;23314;51.114;6.900;2023-05-10T07:43:28;17.90;;;12.80;;
37451;SDS011;23314;51.114;6.900;2023-05-10T07:45:53;17.37;;;13.70;;
37451;SDS011;23314;51.114;6.900;2023-05-10T07:48:19;19.67;;;14.53;;
37451;SDS011;23314;51.114;6.900;2023-05-10T07:50:44;17.80;;;14.23;;
37451;SDS011;23314;51.114;6.900;2023-05-10T07:53:09;17.70;;;14.20;;
37451;SDS011;23314;51.114;6.900;2023-05-10T07:55:35;17.87;;;13.83;;
37451;SDS011;23314;51.114;6.900;2023-05-10T07:58:00;17.57;;;14.27;;
37451;SDS011;23314;51.114;6.900;2023-05-10T08:00:29;17.77;;;13.80;;
37451;SDS011;23314;51.114;6.900;2023-05-10T08:02:54;15.47;;;13.03;;
37451;SDS011;23314;51.114;6.900;2023-05-10T08:05:19;17.77;;;14.00;;
37451;SDS011;23314;51.114;6.900;2023-05-10T08:07:45;18.17;;;13.33;;
37451;SDS011;23314;51.114;6.900;2023-05-10T08:10:10;14.53;;;12.70;;
37451;SDS011;23314;51.114;6.900;2023-05-10T08:12:36;15.32;;;12.00;;
37451;SDS011;23314;51.114;6.900;2023-05-10T08:15:02;15.55;;;12.80;;
37451;SDS011;23314;51.114;6.900;2023-05-10T08:17:28;17.05;;;12.77;;
37451;SDS011;23314;51.114;6.900;2023-05-10T08:19:53;15.87;;;12.93;;
37451;SDS011;23314;51.114;6.900;2023-05-10T08:22:18;17.23;;;13.03;;
37451;SDS011;23314;51.114;6.900;2023-05-10T08:24:44;16.00;;;13.73;;
37451;SDS011;23314;51.114;6.900;2023-05-10T08:27:09;16.67;;;13.80;;
37451;SDS011;23314;51.114;6.900;2023-05-10T08:29:35;20.13;;;14.63;;
37451;SDS011;23314;51.114;6.900;2023-05-10T08:32:00;21.47;;;16.73;;
37451;SDS011;23314;51.114;6.900;2023-05-10T08:34:26;24.37;;;17.83;;
37451;SDS011;23314;51.114;6.900;2023-05-10T08:36:51;30.03;;;21.47;;
37451;SDS011;23314;51.114;6.900;2023-05-10T08:39:17;33.03;;;21.60;;
37451;SDS011;23314;51.114;6.900;2023-05-10T08:41:43;34.60;;;24.17;;
37451;SDS011;23314;51.114;6.900;2023-05-10T08:44:09;36.53;;;26.53;;
37451;SDS011;23314;51.114;6.900;2023-05-10T08:46:35;39.67;;;24.73;;
37451;SDS011;23314;51.114;6.900;2023-05-10T08:49:04;41.20;;;27.70;;
37451;SDS011;23314;51.114;6.900;2023-05-10T08:51:33;39.15;;;26.67;;
37451;SDS011;23314;51.114;6.900;2023-05-10T08:54:01;35.75;;;25.23;;
37451;SDS011;23314;51.114;6.900;2023-05-10T08:56:28;41.60;;;26.00;;
37451;SDS011;23314;51.114;6.900;2023-05-10T08:58:54;33.10;;;24.02;;
37451;SDS011;23314;51.114;6.900;2023-05-10T09:01:20;34.28;;;23.55;;
37451;SDS011;23314;51.114;6.900;2023-05-10T09:03:46;31.75;;;23.15;;
37451;SDS011;23314;51.114;6.900;2023-05-10T09:06:13;34.13;;;23.63;;
37451;SDS011;23314;51.114;6.900;2023-05-10T09:08:38;34.78;;;23.92;;
37451;SDS011;23314;51.114;6.900;2023-05-10T09:11:06;27.15;;;21.10;;
37451;SDS011;23314;51.114;6.900;2023-05-10T09:13:32;32.47;;;21.70;;
37451;SDS011;23314;51.114;6.900;2023-05-10T09:15:58;34.20;;;23.53;;
37451;SDS011;23314;51.114;6.900;2023-05-10T09:18:23;35.00;;;22.60;;
37451;SDS011;23314;51.114;6.900;2023-05-10T09:20:49;36.67;;;23.40;;
37451;SDS011;23314;51.114;6.900;2023-05-10T09:23:14;33.37;;;22.73;;
37451;SDS011;23314;51.114;6.900;2023-05-10T09:25:41;30.90;;;22.47;;
37451;SDS011;23314;51.114;6.900;2023-05-10T09:28:07;32.53;;;22.27;;
37451;SDS011;23314;51.114;6.900;2023-05-10T09:30:34;35.13;;;25.60;;
37451;SDS011;23314;51.114;6.900;2023-05-10T09:33:00;36.13;;;25.90;;
37451;SDS011;23314;51.114;6.900;2023-05-10T09:35:27;37.30;;;25.77;;
37451;SDS011;23314;51.114;6.900;2023-05-10T09:37:54;33.33;;;24.70;;
37451;SDS011;23314;51.114;6.900;2023-05-10T09:40:21;36.07;;;25.43;;
37451;SDS011;23314;51.114;6.900;2023-05-10T09:43:05;38.93;;;25.60;;
37451;SDS011;23314;51.114;6.900;2023-05-10T09:45:33;41.97;;;28.13;;
37451;SDS011;23314;51.114;6.900;2023-05-10T09:48:00;44.97;;;28.20;;
37451;SDS011;23314;51.114;6.900;2023-05-10T09:50:27;46.13;;;28.37;;
37451;SDS011;23314;51.114;6.900;2023-05-10T09:52:54;41.60;;;27.97;;
37451;SDS011;23314;51.114;6.900;2023-05-10T09:55:44;45.33;;;29.00;;
37451;SDS011;23314;51.114;6.900;2023-05-10T09:58:10;38.03;;;28.10;;
37451;SDS011;23314;51.114;6.900;2023-05-10T10:00:38;35.83;;;24.60;;
37451;SDS011;23314;51.114;6.900;2023-05-10T10:03:05;32.90;;;25.77;;
37451;SDS011;23314;51.114;6.900;2023-05-10T10:05:31;37.20;;;25.70;;
37451;SDS011;23314;51.114;6.900;2023-05-10T10:07:58;34.60;;;24.90;;
37451;SDS011;23314;51.114;6.900;2023-05-10T10:10:25;31.07;;;23.27;;
37451;SDS011;23314;51.114;6.900;2023-05-10T10:12:52;31.50;;;24.23;;
37451;SDS011;23314;51.114;6.900;2023-05-10T10:15:17;30.70;;;21.60;;
37451;SDS011;23314;51.114;6.900;2023-05-10T10:17:43;28.97;;;21.27;;
37451;SDS011;23314;51.114;6.900;2023-05-10T10:20:09;28.23;;;21.27;;
37451;SDS011;23314;51.114;6.900;2023-05-10T10:22:36;31.77;;;21.90;;
37451;SDS011;23314;51.114;6.900;2023-05-10T10:25:01;27.23;;;21.77;;
37451;SDS011;23314;51.114;6.900;2023-05-10T10:27:31;27.20;;;20.43;;
37451;SDS011;23314;51.114;6.900;2023-05-10T10:30:17;27.80;;;20.63;;
37451;SDS011;23314;51.114;6.900;2023-05-10T10:35:58;28.63;;;20.63;;
37451;SDS011;23314;51.114;6.900;2023-05-10T10:38:35;24.23;;;19.83;;
37451;SDS011;23314;51.114;6.900;2023-05-10T10:46:59;18.03;;;16.10;;
37451;SDS011;23314;51.114;6.900;2023-05-10T10:55:01;19.65;;;15.63;;
37451;SDS011;23314;51.114;6.900;2023-05-10T11:02:45;19.30;;;15.65;;
37451;SDS011;23314;51.114;6.900;2023-05-10T11:07:57;19.27;;;15.18;;
37451;SDS011;23314;51.114;6.900;2023-05-10T11:10:24;18.80;;;15.25;;
37451;SDS011;23314;51.114;6.900;2023-05-10T11:13:04;18.92;;;15.20;;
37451;SDS011;23314;51.114;6.900;2023-05-10T11:15:34;16.60;;;13.88;;
37451;SDS011;23314;51.114;6.900;2023-05-10T11:18:17;15.05;;;13.27;;
37451;SDS011;23314;51.114;6.900;2023-05-10T11:20:44;18.15;;;13.95;;
37451;SDS011;23314;51.114;6.900;2023-05-10T11:23:14;17.65;;;14.50;;
37451;SDS011;23314;51.114;6.900;2023-05-10T11:25:44;16.38;;;13.93;;
37451;SDS011;23314;51.114;6.900;2023-05-10T11:28:11;15.40;;;12.55;;
37451;SDS011;23314;51.114;6.900;2023-05-10T11:30:39;15.25;;;12.82;;
37451;SDS011;23314;51.114;6.900;2023-05-10T11:33:06;14.52;;;12.75;;
37451;SDS011;23314;51.114;6.900;2023-05-10T11:35:38;15.45;;;12.75;;
37451;SDS011;23314;51.114;6.900;2023-05-10T11:38:08;13.68;;;12.27;;
37451;SDS011;23314;51.114;6.900;2023-05-10T11:40:35;12.98;;;11.68;;
37451;SDS011;23314;51.114;6.900;2023-05-10T11:43:02;16.65;;;12.10;;
37451;SDS011;23314;51.114;6.900;2023-05-10T11:45:28;14.90;;;11.85;;
37451;SDS011;23314;51.114;6.900;2023-05-10T11:47:57;13.77;;;11.98;;
37451;SDS011;23314;51.114;6.900;2023-05-10T11:50:22;13.35;;;11.95;;
37451;SDS011;23314;51.114;6.900;2023-05-10T11:52:54;13.18;;;11.60;;
37451;SDS011;23314;51.114;6.900;2023-05-10T11:55:20;13.65;;;12.10;;
37451;SDS011;23314;51.114;6.900;2023-05-10T11:57:46;14.27;;;11.88;;
37451;SDS011;23314;51.114;6.900;2023-05-10T12:00:12;14.45;;;11.68;;
37451;SDS011;23314;51.114;6.900;2023-05-10T12:02:38;15.23;;;12.25;;
37451;SDS011;23314;51.114;6.900;2023-05-10T12:05:04;14.40;;;12.70;;
37451;SDS011;23314;51.114;6.900;2023-05-10T12:07:30;19.90;;;14.18;;
37451;SDS011;23314;51.114;6.900;2023-05-10T12:10:09;14.52;;;11.55;;
37451;SDS011;23314;51.114;6.900;2023-05-10T12:12:46;14.30;;;10.40;;
37451;SDS011;23314;51.114;6.900;2023-05-10T12:15:19;14.15;;;12.02;;
37451;SDS011;23314;51.114;6.900;2023-05-10T12:17:47;14.73;;;11.68;;
37451;SDS011;23314;51.114;6.900;2023-05-10T12:20:22;15.40;;;11.65;;
37451;SDS011;23314;51.114;6.900;2023-05-10T12:22:52;15.80;;;11.65;;
37451;SDS011;23314;51.114;6.900;2023-05-10T12:25:20;14.32;;;11.63;;
37451;SDS011;23314;51.114;6.900;2023-05-10T12:27:56;13.32;;;11.30;;
37451;SDS011;23314;51.114;6.900;2023-05-10T12:30:23;12.48;;;10.60;;
37451;SDS011;23314;51.114;6.900;2023-05-10T12:32:53;14.88;;;10.85;;
37451;SDS011;23314;51.114;6.900;2023-05-10T12:35:24;11.93;;;10.65;;
37451;SDS011;23314;51.114;6.900;2023-05-10T12:37:50;12.93;;;10.50;;
37451;SDS011;23314;51.114;6.900;2023-05-10T12:40:16;11.43;;;9.63;;
37451;SDS011;23314;51.114;6.900;2023-05-10T12:42:41;10.00;;;9.00;;
37451;SDS011;23314;51.114;6.900;2023-05-10T12:45:07;10.70;;;9.63;;
37451;SDS011;23314;51.114;6.900;2023-05-10T12:47:33;10.38;;;9.35;;
37451;SDS011;23314;51.114;6.900;2023-05-10T12:49:59;10.70;;;9.70;;
37451;SDS011;23314;51.114;6.900;2023-05-10T12:52:26;10.57;;;9.32;;
37451;SDS011;23314;51.114;6.900;2023-05-10T12:54:52;9.85;;;8.90;;
37451;SDS011;23314;51.114;6.900;2023-05-10T12:57:18;9.43;;;8.63;;
37451;SDS011;23314;51.114;6.900;2023-05-10T12:59:43;9.77;;;8.88;;
37451;SDS011;23314;51.114;6.900;2023-05-10T13:02:09;10.60;;;9.50;;
37451;SDS011;23314;51.114;6.900;2023-05-10T13:04:34;11.18;;;10.00;;
37451;SDS011;23314;51.114;6.900;2023-05-10T13:07:02;13.05;;;11.70;;
37451;SDS011;23314;51.114;6.900;2023-05-10T13:09:27;15.00;;;13.50;;
37451;SDS011;23314;51.114;6.900;2023-05-10T13:11:56;18.02;;;15.05;;
37451;SDS011;23314;51.114;6.900;2023-05-10T13:14:21;15.07;;;13.65;;
37451;SDS011;23314;51.114;6.900;2023-05-10T13:16:47;15.00;;;13.35;;
37451;SDS011;23314;51.114;6.900;2023-05-10T13:19:13;16.63;;;14.63;;
37451;SDS011;23314;51.114;6.900;2023-05-10T13:21:39;17.23;;;15.45;;
37451;SDS011;23314;51.114;6.900;2023-05-10T13:24:06;16.23;;;14.60;;
37451;SDS011;23314;51.114;6.900;2023-05-10T13:26:31;17.17;;;15.48;;
37451;SDS011;23314;51.114;6.900;2023-05-10T13:28:57;17.83;;;16.02;;
37451;SDS011;23314;51.114;6.900;2023-05-10T13:31:22;17.30;;;15.43;;
37451;SDS011;23314;51.114;6.900;2023-05-10T13:33:48;18.88;;;16.70;;
37451;SDS011;23314;51.114;6.900;2023-05-10T13:36:13;18.52;;;16.63;;
37451;SDS011;23314;51.114;6.900;2023-05-10T13:38:38;19.83;;;17.77;;
37451;SDS011;23314;51.114;6.900;2023-05-10T13:41:04;20.50;;;18.55;;
37451;SDS011;23314;51.114;6.900;2023-05-10T13:43:29;22.70;;;18.80;;
37451;SDS011;23314;51.114;6.900;2023-05-10T13:45:55;20.38;;;18.35;;
37451;SDS011;23314;51.114;6.900;2023-05-10T13:48:20;17.77;;;15.98;;
37451;SDS011;23314;51.114;6.900;2023-05-10T13:50:46;19.73;;;17.73;;
37451;SDS011;23314;51.114;6.900;2023-05-10T13:53:11;22.33;;;17.45;;
37451;SDS011;23314;51.114;6.900;2023-05-10T13:55:36;19.90;;;17.85;;
37451;SDS011;23314;51.114;6.900;2023-05-10T13:58:02;19.55;;;16.92;;
37451;SDS011;23314;51.114;6.900;2023-05-10T14:00:27;20.88;;;17.65;;
37451;SDS011;23314;51.114;6.900;2023-05-10T14:02:53;22.95;;;19.02;;
37451;SDS011;23314;51.114;6.900;2023-05-10T14:05:18;21.75;;;19.33;;
37451;SDS011;23314;51.114;6.900;2023-05-10T14:07:43;23.02;;;19.38;;
37451;SDS011;23314;51.114;6.900;2023-05-10T14:10:09;21.38;;;19.17;;
37451;SDS011;23314;51.114;6.900;2023-05-10T14:12:34;17.23;;;14.80;;
37451;SDS011;23314;51.114;6.900;2023-05-10T14:15:00;22.88;;;16.25;;
37451;SDS011;23314;51.114;6.900;2023-05-10T14:17:25;20.67;;;16.20;;
37451;SDS011;23314;51.114;6.900;2023-05-10T14:19:50;19.23;;;17.23;;
37451;SDS011;23314;51.114;6.900;2023-05-10T14:22:16;18.17;;;16.17;;
37451;SDS011;23314;51.114;6.900;2023-05-10T14:24:41;16.03;;;13.53;;
37451;SDS011;23314;51.114;6.900;2023-05-10T14:27:06;14.00;;;11.60;;
37451;SDS011;23314;51.114;6.900;2023-05-10T14:29:32;12.37;;;11.17;;
37451;SDS011;23314;51.114;6.900;2023-05-10T14:31:57;11.57;;;10.37;;
37451;SDS011;23314;51.114;6.900;2023-05-10T14:34:23;9.07;;;8.17;;
37451;SDS011;23314;51.114;6.900;2023-05-10T14:36:48;11.07;;;8.03;;
37451;SDS011;23314;51.114;6.900;2023-05-10T14:39:13;8.90;;;7.53;;
37451;SDS011;23314;51.114;6.900;2023-05-10T14:41:39;8.73;;;7.93;;
37451;SDS011;23314;51.114;6.900;2023-05-10T14:44:06;6.72;;;6.15;;
37451;SDS011;23314;51.114;6.900;2023-05-10T14:46:31;8.10;;;6.90;;
37451;SDS011;23314;51.114;6.900;2023-05-10T14:48:56;7.20;;;6.50;;
37451;SDS011;23314;51.114;6.900;2023-05-10T14:51:22;6.33;;;5.73;;
37451;SDS011;23314;51.114;6.900;2023-05-10T14:53:50;6.55;;;5.95;;
37451;SDS011;23314;51.114;6.900;2023-05-10T14:56:15;7.03;;;6.07;;
37451;SDS011;23314;51.114;6.900;2023-05-10T14:58:40;6.80;;;6.18;;
37451;SDS011;23314;51.114;6.900;2023-05-10T15:01:06;7.18;;;5.65;;
37451;SDS011;23314;51.114;6.900;2023-05-10T15:03:31;6.53;;;5.97;;
37451;SDS011;23314;51.114;6.900;2023-05-10T15:05:56;7.20;;;6.07;;
37451;SDS011;23314;51.114;6.900;2023-05-10T15:08:23;6.25;;;5.70;;
37451;SDS011;23314;51.114;6.900;2023-05-10T15:10:49;7.18;;;6.47;;
37451;SDS011;23314;51.114;6.900;2023-05-10T15:13:15;6.03;;;5.38;;
37451;SDS011;23314;51.114;6.900;2023-05-10T15:15:40;6.63;;;6.03;;
37451;SDS011;23314;51.114;6.900;2023-05-10T15:18:05;7.32;;;6.72;;
37451;SDS011;23314;51.114;6.900;2023-05-10T15:20:31;6.40;;;5.80;;
37451;SDS011;23314;51.114;6.900;2023-05-10T15:22:56;6.35;;;5.63;;
37451;SDS011;23314;51.114;6.900;2023-05-10T15:25:21;5.97;;;5.30;;
37451;SDS011;23314;51.114;6.900;2023-05-10T15:27:48;6.30;;;5.70;;
37451;SDS011;23314;51.114;6.900;2023-05-10T15:30:14;7.03;;;6.32;;
37451;SDS011;23314;51.114;6.900;2023-05-10T15:32:39;6.03;;;5.53;;
37451;SDS011;23314;51.114;6.900;2023-05-10T15:35:06;6.30;;;5.75;;
37451;SDS011;23314;51.114;6.900;2023-05-10T15:37:32;6.45;;;5.93;;
37451;SDS011;23314;51.114;6.900;2023-05-10T15:39:58;7.78;;;6.50;;
37451;SDS011;23314;51.114;6.900;2023-05-10T15:42:28;7.07;;;6.38;;
37451;SDS011;23314;51.114;6.900;2023-05-10T15:44:54;7.95;;;6.43;;
37451;SDS011;23314;51.114;6.900;2023-05-10T15:47:20;7.30;;;6.70;;
37451;SDS011;23314;51.114;6.900;2023-05-10T15:49:45;6.30;;;5.80;;
37451;SDS011;23314;51.114;6.900;2023-05-10T15:52:10;7.07;;;6.43;;
37451;SDS011;23314;51.114;6.900;2023-05-10T15:54:36;5.45;;;5.05;;
37451;SDS011;23314;51.114;6.900;2023-05-10T15:57:02;6.57;;;5.63;;
37451;SDS011;23314;51.114;6.900;2023-05-10T15:59:27;5.32;;;4.90;;
37451;SDS011;23314;51.114;6.900;2023-05-10T16:01:53;5.75;;;5.25;;
37451;SDS011;23314;51.114;6.900;2023-05-10T16:04:18;5.38;;;4.88;;
37451;SDS011;23314;51.114;6.900;2023-05-10T16:06:43;5.85;;;5.22;;
37451;SDS011;23314;51.114;6.900;2023-05-10T16:09:09;5.97;;;5.18;;
37451;SDS011;23314;51.114;6.900;2023-05-10T16:11:34;6.00;;;5.50;;
37451;SDS011;23314;51.114;6.900;2023-05-10T16:14:00;5.35;;;4.95;;
37451;SDS011;23314;51.114;6.900;2023-05-10T16:16:25;5.70;;;5.20;;
37451;SDS011;23314;51.114;6.900;2023-05-10T16:18:51;5.55;;;4.95;;
37451;SDS011;23314;51.114;6.900;2023-05-10T16:21:16;5.43;;;4.93;;
37451;SDS011;23314;51.114;6.900;2023-05-10T16:23:41;4.80;;;4.25;;
37451;SDS011;23314;51.114;6.900;2023-05-10T16:26:10;3.90;;;3.60;;
37451;SDS011;23314;51.114;6.900;2023-05-10T16:28:35;5.75;;;4.30;;
37451;SDS011;23314;51.114;6.900;2023-05-10T16:31:01;4.03;;;3.72;;
37451;SDS011;23314;51.114;6.900;2023-05-10T16:33:26;3.88;;;3.53;;
37451;SDS011;23314;51.114;6.900;2023-05-10T16:35:52;4.70;;;3.90;;
37451;SDS011;23314;51.114;6.900;2023-05-10T16:38:17;4.00;;;3.70;;
37451;SDS011;23314;51.114;6.900;2023-05-10T16:40:42;4.05;;;3.75;;
37451;SDS011;23314;51.114;6.900;2023-05-10T16:43:08;4.43;;;3.47;;
37451;SDS011;23314;51.114;6.900;2023-05-10T16:45:33;3.97;;;3.67;;
37451;SDS011;23314;51.114;6.900;2023-05-10T16:47:58;5.15;;;3.75;;
37451;SDS011;23314;51.114;6.900;2023-05-10T16:50:24;4.05;;;3.70;;
37451;SDS011;23314;51.114;6.900;2023-05-10T16:52:49;3.75;;;3.45;;
37451;SDS011;23314;51.114;6.900;2023-05-10T16:55:14;4.03;;;3.50;;
37451;SDS011;23314;51.114;6.900;2023-05-10T16:57:40;4.32;;;3.80;;
37451;SDS011;23314;51.114;6.900;2023-05-10T17:00:05;4.43;;;4.13;;
37451;SDS011;23314;51.114;6.900;2023-05-10T17:02:32;4.38;;;4.05;;
37451;SDS011;23314;51.114;6.900;2023-05-10T17:04:57;6.57;;;4.45;;
37451;SDS011;23314;51.114;6.900;2023-05-10T17:07:23;5.85;;;4.68;;
37451;SDS011;23314;51.114;6.900;2023-05-10T17:09:48;5.22;;;4.72;;
37451;SDS011;23314;51.114;6.900;2023-05-10T17:12:13;4.88;;;4.47;;
37451;SDS011;23314;51.114;6.900;2023-05-10T17:14:39;5.45;;;4.90;;
37451;SDS011;23314;51.114;6.900;2023-05-10T17:17:04;5.20;;;4.80;;
37451;SDS011;23314;51.114;6.900;2023-05-10T17:19:30;6.45;;;5.10;;
37451;SDS011;23314;51.114;6.900;2023-05-10T17:21:56;5.30;;;4.78;;
37451;SDS011;23314;51.114;6.900;2023-05-10T17:24:21;5.47;;;3.88;;
37451;SDS011;23314;51.114;6.900;2023-05-10T17:26:47;3.90;;;3.60;;
37451;SDS011;23314;51.114;6.900;2023-05-10T17:29:12;3.58;;;3.13;;
37451;SDS011;23314;51.114;6.900;2023-05-10T17:31:40;3.08;;;2.78;;
37451;SDS011;23314;51.114;6.900;2023-05-10T17:34:06;2.90;;;2.60;;
37451;SDS011;23314;51.114;6.900;2023-05-10T17:36:31;3.13;;;2.67;;
37451;SDS011;23314;51.114;6.900;2023-05-10T17:38:57;2.60;;;2.45;;
37451;SDS011;23314;51.114;6.900;2023-05-10T17:41:23;2.35;;;2.15;;
37451;SDS011;23314;51.114;6.900;2023-05-10T17:43:48;3.03;;;2.83;;
37451;SDS011;23314;51.114;6.900;2023-05-10T17:46:13;2.55;;;2.30;;
37451;SDS011;23314;51.114;6.900;2023-05-10T17:48:39;2.40;;;2.22;;
37451;SDS011;23314;51.114;6.900;2023-05-10T17:51:05;2.60;;;2.40;;
37451;SDS011;23314;51.114;6.900;2023-05-10T17:53:32;2.65;;;2.45;;
37451;SDS011;23314;51.114;6.900;2023-05-10T17:55:59;2.78;;;2.58;;
37451;SDS011;23314;51.114;6.900;2023-05-10T17:58:25;3.03;;;2.80;;
37451;SDS011;23314;51.114;6.900;2023-05-10T18:00:51;3.70;;;3.30;;
37451;SDS011;23314;51.114;6.900;2023-05-10T18:03:17;3.65;;;3.05;;
37451;SDS011;23314;51.114;6.900;2023-05-10T18:05:44;3.80;;;3.50;;
37451;SDS011;23314;51.114;6.900;2023-05-10T18:08:11;3.67;;;3.38;;
37451;SDS011;23314;51.114;6.900;2023-05-10T18:10:36;3.70;;;3.40;;
37451;SDS011;23314;51.114;6.900;2023-05-10T18:13:01;3.70;;;3.40;;
37451;SDS011;23314;51.114;6.900;2023-05-10T18:15:29;3.63;;;3.38;;
37451;SDS011;23314;51.114;6.900;2023-05-10T18:17:56;3.03;;;2.88;;
37451;SDS011;23314;51.114;6.900;2023-05-10T18:20:21;3.38;;;2.70;;
37451;SDS011;23314;51.114;6.900;2023-05-10T18:22:46;3.57;;;2.93;;
37451;SDS011;23314;51.114;6.900;2023-05-10T18:25:12;3.43;;;2.93;;
37451;SDS011;23314;51.114;6.900;2023-05-10T18:27:37;3.10;;;2.90;;
37451;SDS011;23314;51.114;6.900;2023-05-10T18:30:03;2.90;;;2.80;;
37451;SDS011;23314;51.114;6.900;2023-05-10T18:32:30;3.40;;;3.20;;
37451;SDS011;23314;51.114;6.900;2023-05-10T18:34:56;3.70;;;3.33;;
37451;SDS011;23314;51.114;6.900;2023-05-10T18:37:21;3.60;;;3.30;;
37451;SDS011;23314;51.114;6.900;2023-05-10T18:39:46;3.33;;;3.03;;
37451;SDS011;23314;51.114;6.900;2023-05-10T18:42:12;3.00;;;2.80;;
37451;SDS011;23314;51.114;6.900;2023-05-10T18:44:37;2.93;;;2.63;;
37451;SDS011;23314;51.114;6.900;2023-05-10T18:47:02;3.40;;;2.93;;
37451;SDS011;23314;51.114;6.900;2023-05-10T18:49:28;3.60;;;3.30;;